createdAt,value
2022-08-25T00:02:33.392Z,14.83
2022-08-25T00:08:37.973Z,15.57
2022-08-25T00:14:39.471Z,12.63
2022-08-25T00:20:40.957Z,15.02
2022-08-25T00:26:51.749Z,15.95
2022-08-25T00:32:55.082Z,14.77
2022-08-25T00:38:58.466Z,15.20
2022-08-25T00:45:00.604Z,13.97
2022-08-25T00:51:02.925Z,17.55
2022-08-25T00:57:05.318Z,13.85
2022-08-25T01:03:07.385Z,16.57
2022-08-25T01:09:08.973Z,16.23
2022-08-25T01:15:12.186Z,16.83
2022-08-25T01:21:13.815Z,17.27
2022-08-25T01:27:15.316Z,17.20
2022-08-25T01:33:17.295Z,17.97
2022-08-25T01:39:18.807Z,18.85
2022-08-25T01:45:20.883Z,19.90
2022-08-25T01:51:24.407Z,20.50
2022-08-25T01:57:25.951Z,16.65
2022-08-25T02:03:28.140Z,17.90
2022-08-25T02:09:29.608Z,19.02
2022-08-25T02:15:31.291Z,22.23
2022-08-25T02:21:33.119Z,20.83
2022-08-25T02:27:34.909Z,18.92
2022-08-25T02:33:37.081Z,19.77
2022-08-25T02:39:38.533Z,24.45
2022-08-25T02:45:40.060Z,18.33
2022-08-25T02:51:41.558Z,17.80
2022-08-25T02:57:43.187Z,19.15
2022-08-25T03:03:45.831Z,19.40
2022-08-25T03:09:47.661Z,19.73
2022-08-25T03:15:49.346Z,19.97
2022-08-25T03:21:52.495Z,20.63
2022-08-25T03:27:54.049Z,20.95
2022-08-25T03:33:55.667Z,19.20
2022-08-25T03:39:57.194Z,21.08
2022-08-25T03:45:58.801Z,19.43
2022-08-25T03:52:01.157Z,20.75
2022-08-25T03:58:02.637Z,21.65
2022-08-25T04:04:04.412Z,22.30
2022-08-25T04:10:07.961Z,25.88
2022-08-25T04:16:14.169Z,23.13
2022-08-25T04:22:15.706Z,21.73
2022-08-25T04:28:17.265Z,21.02
2022-08-25T04:34:30.358Z,19.93
2022-08-25T04:40:32.900Z,22.60
2022-08-25T04:46:35.122Z,22.53
2022-08-25T04:52:37.534Z,23.35
2022-08-25T04:58:39.354Z,21.48
2022-08-25T05:04:41.035Z,23.50
2022-08-25T05:10:43.118Z,21.30
2022-08-25T05:16:45.502Z,22.03
2022-08-25T05:22:47.101Z,23.48
2022-08-25T05:28:49.696Z,25.10
2022-08-25T05:34:51.293Z,22.47
2022-08-25T05:40:56.618Z,20.90
2022-08-25T05:46:58.229Z,25.47
2022-08-25T05:52:59.809Z,22.25
2022-08-25T05:59:04.036Z,25.13
2022-08-25T06:05:12.406Z,24.97
2022-08-25T06:11:14.142Z,23.08
2022-08-25T06:17:17.171Z,22.03
2022-08-25T06:23:19.318Z,23.25
2022-08-25T06:29:20.945Z,25.00
2022-08-25T06:35:22.711Z,23.20
2022-08-25T06:41:25.581Z,23.85
2022-08-25T06:47:38.083Z,22.87
2022-08-25T06:53:40.203Z,28.20
2022-08-25T06:59:41.718Z,22.63
2022-08-25T07:05:50.137Z,22.70
2022-08-25T07:11:52.361Z,25.00
2022-08-25T07:17:53.856Z,19.93
2022-08-25T07:23:58.359Z,22.80
2022-08-25T07:29:59.853Z,21.25
2022-08-25T07:36:01.869Z,21.33
2022-08-25T07:42:03.508Z,22.88
2022-08-25T07:48:11.681Z,17.87
2022-08-25T07:54:15.053Z,20.40
2022-08-25T08:00:17.018Z,16.20
2022-08-25T08:06:19.710Z,17.27
2022-08-25T08:12:21.355Z,16.33
2022-08-25T08:18:24.406Z,21.00
2022-08-25T08:24:44.206Z,17.70
2022-08-25T08:30:53.382Z,15.30
2022-08-25T08:36:55.605Z,16.80
2022-08-25T08:43:06.967Z,17.02
2022-08-25T08:49:27.721Z,16.63
2022-08-25T08:55:53.052Z,18.23
2022-08-25T09:02:00.529Z,17.55
2022-08-25T09:08:12.464Z,19.70
2022-08-25T09:14:30.507Z,16.42
2022-08-25T09:20:41.878Z,14.83
2022-08-25T09:26:44.164Z,18.77
2022-08-25T09:32:48.726Z,16.98
2022-08-25T09:38:56.927Z,17.13
2022-08-25T09:44:58.452Z,18.88
2022-08-25T09:51:02.346Z,18.87
2022-08-25T09:57:05.485Z,16.88
2022-08-25T10:03:12.852Z,19.35
2022-08-25T10:09:24.727Z,19.87
2022-08-25T10:15:31.796Z,19.15
2022-08-25T10:21:33.987Z,17.53
2022-08-25T10:27:38.988Z,18.08
2022-08-25T10:33:54.211Z,18.00
2022-08-25T10:40:03.824Z,16.30
2022-08-25T10:46:14.245Z,16.80
2022-08-25T10:52:21.414Z,22.67
2022-08-25T10:58:40.959Z,20.70
2022-08-25T11:04:48.611Z,18.27
2022-08-25T11:10:54.194Z,19.60
2022-08-25T11:17:01.915Z,24.50
2022-08-25T11:23:17.208Z,20.07
2022-08-25T11:29:19.684Z,21.98
2022-08-25T11:35:38.617Z,25.27
2022-08-25T11:41:51.147Z,20.90
2022-08-25T11:48:05.363Z,20.75
2022-08-25T11:54:15.814Z,26.20
2022-08-25T12:00:20.533Z,19.88
2022-08-25T12:06:25.066Z,20.92
2022-08-25T12:12:30.749Z,22.97
2022-08-25T12:18:32.225Z,22.10
2022-08-25T12:24:47.778Z,27.50
2022-08-25T12:30:57.061Z,22.98
2022-08-25T12:37:02.225Z,17.92
2022-08-25T12:43:09.925Z,19.87
2022-08-25T12:49:28.692Z,21.60
2022-08-25T12:55:30.279Z,23.67
2022-08-25T13:01:47.650Z,25.13
2022-08-25T13:07:58.437Z,20.98
2022-08-25T13:14:04.708Z,17.43
2022-08-25T13:20:26.632Z,24.35
2022-08-25T13:26:29.825Z,16.92
2022-08-25T13:32:35.519Z,19.53
2022-08-25T13:38:37.398Z,21.63
2022-08-25T13:44:40.225Z,23.15
2022-08-25T13:51:06.258Z,21.63
2022-08-25T13:57:22.357Z,21.10
2022-08-25T14:03:37.092Z,20.67
2022-08-25T14:09:39.803Z,20.33
2022-08-25T14:15:44.151Z,18.15
2022-08-25T14:21:45.755Z,22.98
2022-08-25T14:28:10.797Z,24.57
2022-08-25T14:34:15.088Z,21.77
2022-08-25T14:40:19.962Z,21.13
2022-08-25T14:46:23.364Z,21.45
2022-08-25T14:52:27.260Z,24.23
2022-08-25T14:58:34.023Z,18.75
2022-08-25T15:04:36.468Z,21.48
2022-08-25T15:10:39.957Z,22.53
2022-08-25T15:16:46.264Z,21.58
2022-08-25T15:22:49.019Z,27.95
2022-08-25T15:28:51.056Z,22.23
2022-08-25T15:34:52.595Z,17.65
2022-08-25T15:40:54.131Z,23.02
2022-08-25T15:46:56.364Z,19.07
2022-08-25T15:52:57.941Z,23.23
2022-08-25T15:58:59.866Z,23.37
2022-08-25T16:05:02.073Z,22.17
2022-08-25T16:11:04.040Z,20.23
2022-08-25T16:17:06.014Z,19.50
2022-08-25T16:23:07.915Z,25.70
2022-08-25T16:29:09.876Z,21.87
2022-08-25T16:35:11.511Z,20.25
2022-08-25T16:41:14.287Z,78.25
2022-08-25T16:47:17.804Z,58.87
2022-08-25T16:53:40.595Z,33.65
2022-08-25T16:59:43.792Z,24.73
2022-08-25T17:05:45.446Z,18.63
2022-08-25T17:11:47.710Z,28.88
2022-08-25T17:17:49.224Z,18.30
2022-08-25T17:23:51.342Z,49.85
2022-08-25T17:29:52.958Z,49.43
2022-08-25T17:35:55.748Z,44.50
2022-08-25T17:41:57.339Z,45.28
2022-08-25T17:47:59.063Z,43.73
2022-08-25T17:54:00.585Z,35.33
2022-08-25T18:00:06.224Z,37.90
2022-08-25T18:06:11.426Z,32.70
2022-08-25T18:12:16.651Z,29.42
2022-08-25T18:18:18.232Z,32.87
2022-08-25T18:24:19.701Z,28.83
2022-08-25T18:30:21.610Z,26.50
2022-08-25T18:36:23.136Z,28.25
2022-08-25T18:42:28.847Z,29.30
2022-08-25T18:48:31.135Z,20.93
2022-08-25T18:54:33.362Z,29.75
2022-08-25T19:00:38.682Z,20.27
2022-08-25T19:06:41.724Z,22.13
2022-08-25T19:12:45.447Z,23.10
2022-08-25T19:18:47.534Z,25.47
2022-08-25T19:24:49.149Z,23.40
2022-08-25T19:30:51.135Z,22.70
2022-08-25T19:36:52.665Z,25.90
2022-08-25T19:42:54.694Z,24.63
2022-08-25T19:48:56.299Z,25.57
2022-08-25T19:54:57.939Z,20.98
2022-08-25T20:00:59.947Z,28.47
2022-08-25T20:07:02.062Z,35.78
2022-08-25T20:13:05.908Z,24.98
2022-08-25T20:19:09.217Z,28.93
2022-08-25T20:25:13.978Z,24.35
2022-08-25T20:31:15.793Z,22.03
2022-08-25T20:37:17.367Z,23.08
2022-08-25T20:43:21.046Z,24.70
2022-08-25T20:49:25.115Z,26.90
2022-08-25T20:55:27.740Z,23.45
2022-08-25T21:01:43.852Z,25.47
2022-08-25T21:07:46.178Z,24.30
2022-08-25T21:13:50.433Z,21.58
2022-08-25T21:19:51.996Z,29.43
2022-08-25T21:25:53.447Z,20.00
2022-08-25T21:31:55.062Z,26.47
2022-08-25T21:37:56.587Z,18.63
2022-08-25T21:43:58.594Z,26.00
2022-08-25T21:50:01.318Z,22.50
2022-08-25T21:56:06.798Z,27.25
2022-08-25T22:02:10.014Z,26.00
2022-08-25T22:08:11.554Z,26.92
2022-08-25T22:14:13.513Z,28.00
2022-08-25T22:20:15.931Z,25.70
2022-08-25T22:26:17.464Z,20.45
2022-08-25T22:32:23.706Z,21.00
2022-08-25T22:38:25.283Z,19.65
2022-08-25T22:44:26.925Z,25.58
2022-08-25T22:50:28.910Z,26.03
2022-08-25T22:56:32.017Z,26.40
2022-08-25T23:02:34.055Z,21.53
2022-08-25T23:08:40.819Z,25.92
2022-08-25T23:14:44.286Z,19.38
2022-08-25T23:21:04.824Z,24.80
2022-08-25T23:27:07.635Z,24.40
2022-08-25T23:33:11.694Z,28.60
2022-08-25T23:39:13.247Z,22.98
2022-08-25T23:45:15.766Z,23.13
2022-08-25T23:51:24.008Z,23.17
2022-08-25T23:57:25.503Z,22.83
